sensor_id;sensor_type;location;lat;lon;timestamp;pressure;altitude;pressure_sealevel;temperature;humidity
40574;BME280;26283;49.020;8.644;2023-06-10T00:00:39;98868.94;;;23.87;50.75
40574;BME280;26283;49.020;8.644;2023-06-10T00:03:06;98870.88;;;23.86;50.75
40574;BME280;26283;49.020;8.644;2023-06-10T00:05:32;98881.09;;;23.86;50.76
40574;BME280;26283;49.020;8.644;2023-06-10T00:08:00;98853.25;;;23.87;50.70
40574;BME280;26283;49.020;8.644;2023-06-10T00:10:26;98846.62;;;23.88;50.19
40574;BME280;26283;49.020;8.644;2023-06-10T00:12:52;98851.31;;;23.88;50.16
40574;BME280;26283;49.020;8.644;2023-06-10T00:15:17;98851.13;;;23.84;50.12
40574;BME280;26283;49.020;8.644;2023-06-10T00:17:43;98858.88;;;23.82;50.15
40574;BME280;26283;49.020;8.644;2023-06-10T00:20:10;98851.28;;;23.79;50.15
40574;BME280;26283;49.020;8.644;2023-06-10T00:22:37;98851.09;;;23.76;50.22
40574;BME280;26283;49.020;8.644;2023-06-10T00:25:06;98852.53;;;23.73;50.24
40574;BME280;26283;49.020;8.644;2023-06-10T00:27:32;98855.91;;;23.70;50.31
40574;BME280;26283;49.020;8.644;2023-06-10T00:30:04;98854.28;;;23.69;50.35
40574;BME280;26283;49.020;8.644;2023-06-10T00:32:34;98856.03;;;23.65;50.49
40574;BME280;26283;49.020;8.644;2023-06-10T00:35:00;98852.78;;;23.63;50.46
40574;BME280;26283;49.020;8.644;2023-06-10T00:37:26;98855.84;;;23.62;50.48
40574;BME280;26283;49.020;8.644;2023-06-10T00:39:52;98857.31;;;23.59;50.48
40574;BME280;26283;49.020;8.644;2023-06-10T00:42:17;98856.81;;;23.57;50.53
40574;BME280;26283;49.020;8.644;2023-06-10T00:44:43;98863.44;;;23.56;50.52
40574;BME280;26283;49.020;8.644;2023-06-10T00:47:08;98861.81;;;23.55;50.48
40574;BME280;26283;49.020;8.644;2023-06-10T00:49:34;98863.25;;;23.52;50.46
40574;BME280;26283;49.020;8.644;2023-06-10T00:52:00;98863.25;;;23.52;50.50
40574;BME280;26283;49.020;8.644;2023-06-10T00:54:26;98859.69;;;23.52;50.54
40574;BME280;26283;49.020;8.644;2023-06-10T00:56:53;98861.09;;;23.49;50.56
40574;BME280;26283;49.020;8.644;2023-06-10T00:59:18;98855.91;;;23.48;50.53
40574;BME280;26283;49.020;8.644;2023-06-10T01:01:45;98861.41;;;23.48;50.52
40574;BME280;26283;49.020;8.644;2023-06-10T01:04:12;98855.09;;;23.47;50.46
40574;BME280;26283;49.020;8.644;2023-06-10T01:09:23;98856.53;;;23.45;50.49
40574;BME280;26283;49.020;8.644;2023-06-10T01:11:58;98859.59;;;23.43;50.55
40574;BME280;26283;49.020;8.644;2023-06-10T01:14:29;98858.78;;;23.43;50.48
40574;BME280;26283;49.020;8.644;2023-06-10T01:16:57;98850.84;;;23.41;50.37
40574;BME280;26283;49.020;8.644;2023-06-10T01:19:23;98848.88;;;23.42;50.38
40574;BME280;26283;49.020;8.644;2023-06-10T01:21:50;98850.84;;;23.41;50.32
40574;BME280;26283;49.020;8.644;2023-06-10T01:24:17;98851.94;;;23.40;50.34
40574;BME280;26283;49.020;8.644;2023-06-10T01:26:43;98851.47;;;23.38;50.36
40574;BME280;26283;49.020;8.644;2023-06-10T01:29:34;98856.97;;;23.38;50.36
40574;BME280;26283;49.020;8.644;2023-06-10T01:32:15;98859.72;;;23.38;50.57
40574;BME280;26283;49.020;8.644;2023-06-10T01:34:42;98855.34;;;23.37;50.43
40574;BME280;26283;49.020;8.644;2023-06-10T01:37:13;98852.91;;;23.36;50.32
40574;BME280;26283;49.020;8.644;2023-06-10T01:39:41;98853.22;;;23.34;50.39
40574;BME280;26283;49.020;8.644;2023-06-10T01:42:08;98854.34;;;23.33;50.40
40574;BME280;26283;49.020;8.644;2023-06-10T01:44:33;98853.84;;;23.31;50.47
40574;BME280;26283;49.020;8.644;2023-06-10T01:46:59;98853.84;;;23.31;50.50
40574;BME280;26283;49.020;8.644;2023-06-10T01:49:24;98854.97;;;23.30;50.48
40574;BME280;26283;49.020;8.644;2023-06-10T01:51:51;98856.91;;;23.30;50.52
40574;BME280;26283;49.020;8.644;2023-06-10T01:54:16;98858.03;;;23.29;50.53
40574;BME280;26283;49.020;8.644;2023-06-10T01:56:52;98861.91;;;23.28;50.52
40574;BME280;26283;49.020;8.644;2023-06-10T01:59:20;98861.41;;;23.25;50.66
40574;BME280;26283;49.020;8.644;2023-06-10T02:01:45;98858.66;;;23.25;50.56
40574;BME280;26283;49.020;8.644;2023-06-10T02:04:11;98855.91;;;23.25;50.55
40574;BME280;26283;49.020;8.644;2023-06-10T02:06:36;98866.37;;;23.23;50.56
40574;BME280;26283;49.020;8.644;2023-06-10T02:09:03;98862.81;;;23.23;50.61
40574;BME280;26283;49.020;8.644;2023-06-10T02:11:28;98863.94;;;23.22;50.62
40574;BME280;26283;49.020;8.644;2023-06-10T02:13:54;98869.44;;;23.22;50.62
40574;BME280;26283;49.020;8.644;2023-06-10T02:16:19;98870.56;;;23.21;50.59
40574;BME280;26283;49.020;8.644;2023-06-10T02:18:46;98873.63;;;23.19;50.65
40574;BME280;26283;49.020;8.644;2023-06-10T02:21:12;98876.38;;;23.19;50.63
40574;BME280;26283;49.020;8.644;2023-06-10T02:23:37;98877.50;;;23.18;50.61
40574;BME280;26283;49.020;8.644;2023-06-10T02:26:03;98872.31;;;23.17;50.62
40574;BME280;26283;49.020;8.644;2023-06-10T02:28:28;98875.06;;;23.17;50.62
40574;BME280;26283;49.020;8.644;2023-06-10T02:30:53;98878.16;;;23.15;50.59
40574;BME280;26283;49.020;8.644;2023-06-10T02:33:19;98882.81;;;23.15;50.61
40574;BME280;26283;49.020;8.644;2023-06-10T02:35:45;98883.94;;;23.14;50.63
40574;BME280;26283;49.020;8.644;2023-06-10T02:38:10;98883.94;;;23.14;50.69
40574;BME280;26283;49.020;8.644;2023-06-10T02:40:36;98887.00;;;23.12;50.63
40574;BME280;26283;49.020;8.644;2023-06-10T02:43:01;98890.88;;;23.11;50.62
40574;BME280;26283;49.020;8.644;2023-06-10T02:45:26;98893.63;;;23.11;50.63
40574;BME280;26283;49.020;8.644;2023-06-10T02:47:52;98893.13;;;23.09;50.61
40574;BME280;26283;49.020;8.644;2023-06-10T02:50:17;98895.87;;;23.09;50.61
40574;BME280;26283;49.020;8.644;2023-06-10T02:52:43;98895.06;;;23.09;50.60
40574;BME280;26283;49.020;8.644;2023-06-10T02:55:08;98897.00;;;23.08;50.60
40574;BME280;26283;49.020;8.644;2023-06-10T02:57:34;98895.66;;;23.06;50.61
40574;BME280;26283;49.020;8.644;2023-06-10T03:00:00;98895.66;;;23.06;50.61
40574;BME280;26283;49.020;8.644;2023-06-10T03:02:26;98890.47;;;23.04;50.65
40574;BME280;26283;49.020;8.644;2023-06-10T03:04:56;98897.91;;;23.04;50.71
40574;BME280;26283;49.020;8.644;2023-06-10T03:07:22;98896.28;;;23.03;50.74
40574;BME280;26283;49.020;8.644;2023-06-10T03:09:48;98893.53;;;23.03;50.63
40574;BME280;26283;49.020;8.644;2023-06-10T03:12:14;98893.03;;;23.01;50.69
40574;BME280;26283;49.020;8.644;2023-06-10T03:14:39;98897.72;;;23.00;50.65
40574;BME280;26283;49.020;8.644;2023-06-10T03:17:05;98895.28;;;22.99;50.60
40574;BME280;26283;49.020;8.644;2023-06-10T03:19:31;98897.19;;;22.98;50.62
40574;BME280;26283;49.020;8.644;2023-06-10T03:22:08;98896.69;;;22.96;50.59
40574;BME280;26283;49.020;8.644;2023-06-10T03:24:34;98895.87;;;22.96;50.79
40574;BME280;26283;49.020;8.644;2023-06-10T03:27:01;98900.56;;;22.95;50.62
40574;BME280;26283;49.020;8.644;2023-06-10T03:29:27;98906.41;;;22.94;50.63
40574;BME280;26283;49.020;8.644;2023-06-10T03:31:52;98902.84;;;22.93;50.63
40574;BME280;26283;49.020;8.644;2023-06-10T03:34:18;98897.66;;;22.92;50.62
40574;BME280;26283;49.020;8.644;2023-06-10T03:36:43;98907.81;;;22.91;50.62
40574;BME280;26283;49.020;8.644;2023-06-10T03:39:08;98906.19;;;22.90;50.59
40574;BME280;26283;49.020;8.644;2023-06-10T03:41:35;98908.12;;;22.89;50.59
40574;BME280;26283;49.020;8.644;2023-06-10T03:44:00;98912.00;;;22.88;50.57
40574;BME280;26283;49.020;8.644;2023-06-10T03:46:26;98911.19;;;22.88;50.57
40574;BME280;26283;49.020;8.644;2023-06-10T03:48:51;98913.13;;;22.87;50.56
40574;BME280;26283;49.020;8.644;2023-06-10T03:51:16;98907.94;;;22.86;50.58
40574;BME280;26283;49.020;8.644;2023-06-10T03:53:42;98914.53;;;22.85;50.56
40574;BME280;26283;49.020;8.644;2023-06-10T03:56:07;98906.31;;;22.85;50.59
40574;BME280;26283;49.020;8.644;2023-06-10T03:58:33;98914.03;;;22.83;50.61
40574;BME280;26283;49.020;8.644;2023-06-10T04:00:58;98919.53;;;22.83;50.62
40574;BME280;26283;49.020;8.644;2023-06-10T04:03:24;98920.66;;;22.82;50.67
40574;BME280;26283;49.020;8.644;2023-06-10T04:05:49;98921.75;;;22.81;50.66
40574;BME280;26283;49.020;8.644;2023-06-10T04:08:15;98913.00;;;22.79;50.69
40574;BME280;26283;49.020;8.644;2023-06-10T04:10:40;98922.06;;;22.79;50.66
40574;BME280;26283;49.020;8.644;2023-06-10T04:13:06;98920.44;;;22.78;50.63
40574;BME280;26283;49.020;8.644;2023-06-10T04:15:31;98908.63;;;22.78;50.68
40574;BME280;26283;49.020;8.644;2023-06-10T04:17:59;98923.47;;;22.77;50.70
40574;BME280;26283;49.020;8.644;2023-06-10T04:20:26;98919.91;;;22.76;50.63
40574;BME280;26283;49.020;8.644;2023-06-10T04:22:52;98915.53;;;22.75;50.66
40574;BME280;26283;49.020;8.644;2023-06-10T04:25:17;98924.06;;;22.74;50.72
40574;BME280;26283;49.020;8.644;2023-06-10T04:27:43;98920.53;;;22.73;50.76
40574;BME280;26283;49.020;8.644;2023-06-10T04:30:09;98927.97;;;22.73;50.83
40574;BME280;26283;49.020;8.644;2023-06-10T04:32:34;98923.59;;;22.72;50.88
40574;BME280;26283;49.020;8.644;2023-06-10T04:35:00;98931.00;;;22.71;50.94
40574;BME280;26283;49.020;8.644;2023-06-10T04:37:25;98925.81;;;22.70;50.95
40574;BME280;26283;49.020;8.644;2023-06-10T04:39:50;98934.06;;;22.70;51.00
40574;BME280;26283;49.020;8.644;2023-06-10T04:42:16;98937.12;;;22.68;51.01
40574;BME280;26283;49.020;8.644;2023-06-10T04:44:41;98940.16;;;22.67;51.03
40574;BME280;26283;49.020;8.644;2023-06-10T04:47:08;98928.38;;;22.66;51.06
40574;BME280;26283;49.020;8.644;2023-06-10T04:49:34;98931.41;;;22.65;51.17
40574;BME280;26283;49.020;8.644;2023-06-10T04:52:00;98936.09;;;22.64;51.21
40574;BME280;26283;49.020;8.644;2023-06-10T04:54:33;98938.03;;;22.64;51.27
40574;BME280;26283;49.020;8.644;2023-06-10T04:56:58;98943.00;;;22.62;51.42
40574;BME280;26283;49.020;8.644;2023-06-10T04:59:25;98941.91;;;22.63;51.33
40574;BME280;26283;49.020;8.644;2023-06-10T05:01:50;98945.75;;;22.62;51.38
40574;BME280;26283;49.020;8.644;2023-06-10T05:04:16;98949.63;;;22.61;51.50
40574;BME280;26283;49.020;8.644;2023-06-10T05:06:41;98950.75;;;22.60;51.59
40574;BME280;26283;49.020;8.644;2023-06-10T05:09:07;98959.28;;;22.58;51.62
40574;BME280;26283;49.020;8.644;2023-06-10T05:11:32;98954.91;;;22.57;51.67
40574;BME280;26283;49.020;8.644;2023-06-10T05:13:57;98954.09;;;22.56;51.74
40574;BME280;26283;49.020;8.644;2023-06-10T05:16:23;98951.34;;;22.56;51.87
40574;BME280;26283;49.020;8.644;2023-06-10T05:18:48;98956.31;;;22.54;51.94
40574;BME280;26283;49.020;8.644;2023-06-10T05:21:16;98957.13;;;22.55;52.02
40574;BME280;26283;49.020;8.644;2023-06-10T05:23:41;98953.88;;;22.53;52.04
40574;BME280;26283;49.020;8.644;2023-06-10T05:26:06;98961.31;;;22.52;52.02
40574;BME280;26283;49.020;8.644;2023-06-10T05:28:32;98987.16;;;22.51;52.86
40574;BME280;26283;49.020;8.644;2023-06-10T05:30:57;98983.47;;;22.56;52.56
40574;BME280;26283;49.020;8.644;2023-06-10T05:33:25;98985.94;;;22.57;52.49
40574;BME280;26283;49.020;8.644;2023-06-10T05:35:51;98991.41;;;22.57;52.49
40574;BME280;26283;49.020;8.644;2023-06-10T05:38:16;98993.34;;;22.57;52.54
40574;BME280;26283;49.020;8.644;2023-06-10T05:40:41;98988.47;;;22.54;52.57
40574;BME280;26283;49.020;8.644;2023-06-10T05:43:07;98998.34;;;22.55;52.61
40574;BME280;26283;49.020;8.644;2023-06-10T05:45:32;98988.47;;;22.54;52.66
40574;BME280;26283;49.020;8.644;2023-06-10T05:47:58;98994.25;;;22.52;52.71
40574;BME280;26283;49.020;8.644;2023-06-10T05:50:23;98999.75;;;22.52;52.75
40574;BME280;26283;49.020;8.644;2023-06-10T05:52:49;99007.50;;;22.50;52.80
40574;BME280;26283;49.020;8.644;2023-06-10T05:55:15;99002.00;;;22.50;52.84
40574;BME280;26283;49.020;8.644;2023-06-10T05:57:41;99004.25;;;22.48;52.87
40574;BME280;26283;49.020;8.644;2023-06-10T06:00:07;98997.94;;;22.48;52.90
40574;BME280;26283;49.020;8.644;2023-06-10T06:02:33;99003.44;;;22.48;52.91
40574;BME280;26283;49.020;8.644;2023-06-10T06:04:58;99004.53;;;22.47;52.95
40574;BME280;26283;49.020;8.644;2023-06-10T06:07:24;99003.72;;;22.46;52.97
40574;BME280;26283;49.020;8.644;2023-06-10T06:09:49;99007.59;;;22.45;53.00
40574;BME280;26283;49.020;8.644;2023-06-10T06:12:14;99005.97;;;22.44;53.03
40574;BME280;26283;49.020;8.644;2023-06-10T06:14:40;99000.47;;;22.44;53.06
40574;BME280;26283;49.020;8.644;2023-06-10T06:17:06;99005.16;;;22.44;53.08
40574;BME280;26283;49.020;8.644;2023-06-10T06:19:31;99007.88;;;22.44;53.10
40574;BME280;26283;49.020;8.644;2023-06-10T06:21:57;99007.38;;;22.42;53.13
40574;BME280;26283;49.020;8.644;2023-06-10T06:24:25;99005.44;;;22.42;53.15
40574;BME280;26283;49.020;8.644;2023-06-10T06:26:50;99008.19;;;22.42;53.20
40574;BME280;26283;49.020;8.644;2023-06-10T06:29:15;99011.22;;;22.41;53.23
40574;BME280;26283;49.020;8.644;2023-06-10T06:31:41;99008.50;;;22.41;53.25
40574;BME280;26283;49.020;8.644;2023-06-10T06:34:09;99013.16;;;22.40;53.28
40574;BME280;26283;49.020;8.644;2023-06-10T06:36:38;99008.78;;;22.39;53.32
40574;BME280;26283;49.020;8.644;2023-06-10T06:39:03;99004.41;;;22.38;53.31
40574;BME280;26283;49.020;8.644;2023-06-10T06:41:29;99014.28;;;22.39;53.33
40574;BME280;26283;49.020;8.644;2023-06-10T06:44:06;99013.75;;;22.37;53.35
40574;BME280;26283;49.020;8.644;2023-06-10T06:46:31;99011.84;;;22.38;53.36
40574;BME280;26283;49.020;8.644;2023-06-10T06:48:56;99020.88;;;22.38;53.36
40574;BME280;26283;49.020;8.644;2023-06-10T06:51:22;99017.03;;;22.39;53.39
40574;BME280;26283;49.020;8.644;2023-06-10T06:53:47;99022.00;;;22.37;53.40
40574;BME280;26283;49.020;8.644;2023-06-10T06:56:15;99018.13;;;22.38;53.42
40574;BME280;26283;49.020;8.644;2023-06-10T06:58:41;99020.38;;;22.36;53.43
40574;BME280;26283;49.020;8.644;2023-06-10T07:01:06;99023.94;;;22.37;53.45
40574;BME280;26283;49.020;8.644;2023-06-10T07:03:37;99013.75;;;22.37;53.46
40574;BME280;26283;49.020;8.644;2023-06-10T07:06:02;99019.25;;;22.37;53.50
40574;BME280;26283;49.020;8.644;2023-06-10T07:08:28;99024.75;;;22.37;53.49
40574;BME280;26283;49.020;8.644;2023-06-10T07:10:54;99017.63;;;22.36;53.50
40574;BME280;26283;49.020;8.644;2023-06-10T07:13:35;99027.50;;;22.37;53.52
40574;BME280;26283;49.020;8.644;2023-06-10T07:16:06;99016.81;;;22.36;53.61
40574;BME280;26283;49.020;8.644;2023-06-10T07:18:31;99023.94;;;22.37;53.52
40574;BME280;26283;49.020;8.644;2023-06-10T07:20:57;99023.13;;;22.36;53.57
40574;BME280;26283;49.020;8.644;2023-06-10T07:23:22;99026.69;;;22.37;53.58
40574;BME280;26283;49.020;8.644;2023-06-10T07:25:47;99023.13;;;22.36;53.61
40574;BME280;26283;49.020;8.644;2023-06-10T07:28:13;99024.75;;;22.37;53.66
40574;BME280;26283;49.020;8.644;2023-06-10T07:30:38;99019.25;;;22.37;53.71
40574;BME280;26283;49.020;8.644;2023-06-10T07:33:04;99022.00;;;22.37;53.76
40574;BME280;26283;49.020;8.644;2023-06-10T07:35:30;99031.06;;;22.38;53.80
40574;BME280;26283;49.020;8.644;2023-06-10T07:37:56;99018.97;;;22.39;53.84
40574;BME280;26283;49.020;8.644;2023-06-10T07:40:21;99020.88;;;22.38;53.88
40574;BME280;26283;49.020;8.644;2023-06-10T07:42:47;99018.66;;;22.40;53.89
40574;BME280;26283;49.020;8.644;2023-06-10T07:45:14;99012.06;;;22.41;53.92
40574;BME280;26283;49.020;8.644;2023-06-10T07:47:40;99014.78;;;22.41;53.93
40574;BME280;26283;49.020;8.644;2023-06-10T07:50:05;99013.69;;;22.42;53.96
40574;BME280;26283;49.020;8.644;2023-06-10T07:52:31;99020.00;;;22.43;53.99
40574;BME280;26283;49.020;8.644;2023-06-10T07:54:57;99014.19;;;22.44;54.06
40574;BME280;26283;49.020;8.644;2023-06-10T07:57:22;99017.75;;;22.45;54.07
40574;BME280;26283;49.020;8.644;2023-06-10T07:59:47;99017.47;;;22.46;54.04
40574;BME280;26283;49.020;8.644;2023-06-10T08:02:14;99012.47;;;22.48;54.00
40574;BME280;26283;49.020;8.644;2023-06-10T08:04:39;99007.50;;;22.50;53.96
40574;BME280;26283;49.020;8.644;2023-06-10T08:07:05;99009.13;;;22.51;53.98
40574;BME280;26283;49.020;8.644;2023-06-10T08:09:30;99022.53;;;22.53;54.01
40574;BME280;26283;49.020;8.644;2023-06-10T08:11:55;99011.25;;;22.54;53.97
40574;BME280;26283;49.020;8.644;2023-06-10T08:14:21;99010.63;;;22.57;54.01
40574;BME280;26283;49.020;8.644;2023-06-10T08:16:46;99015.03;;;22.58;54.03
40574;BME280;26283;49.020;8.644;2023-06-10T08:19:15;99015.22;;;22.62;53.90
40574;BME280;26283;49.020;8.644;2023-06-10T08:21:40;99011.78;;;22.70;54.06
40574;BME280;26283;49.020;8.644;2023-06-10T08:24:06;99009.16;;;22.79;54.09
40574;BME280;26283;49.020;8.644;2023-06-10T08:26:32;99011.72;;;22.89;54.30
40574;BME280;26283;49.020;8.644;2023-06-10T08:28:57;99013.75;;;22.97;54.34
40574;BME280;26283;49.020;8.644;2023-06-10T08:31:23;99010.28;;;23.05;53.98
40574;BME280;26283;49.020;8.644;2023-06-10T08:33:51;99006.31;;;23.11;53.72
40574;BME280;26283;49.020;8.644;2023-06-10T08:36:16;99005.06;;;23.17;53.69
40574;BME280;26283;49.020;8.644;2023-06-10T08:38:42;99001.41;;;23.22;53.67
40574;BME280;26283;49.020;8.644;2023-06-10T08:41:09;99002.13;;;23.28;53.55
40574;BME280;26283;49.020;8.644;2023-06-10T08:44:10;98998.94;;;23.34;53.58
40574;BME280;26283;49.020;8.644;2023-06-10T08:46:38;99008.91;;;23.44;53.51
40574;BME280;26283;49.020;8.644;2023-06-10T08:49:06;98999.41;;;23.50;52.86
40574;BME280;26283;49.020;8.644;2023-06-10T08:51:37;98994.66;;;23.55;52.68
40574;BME280;26283;49.020;8.644;2023-06-10T08:54:11;99003.56;;;23.61;52.63
40574;BME280;26283;49.020;8.644;2023-06-10T08:56:40;99002.34;;;23.67;52.24
40574;BME280;26283;49.020;8.644;2023-06-10T08:59:08;98999.47;;;23.72;51.63
40574;BME280;26283;49.020;8.644;2023-06-10T09:01:34;98997.72;;;23.76;51.60
40574;BME280;26283;49.020;8.644;2023-06-10T09:04:00;98995.66;;;23.82;51.51
40574;BME280;26283;49.020;8.644;2023-06-10T09:06:27;98991.97;;;23.86;51.64
40574;BME280;26283;49.020;8.644;2023-06-10T09:08:52;98998.16;;;23.92;51.49
40574;BME280;26283;49.020;8.644;2023-06-10T09:11:18;98992.34;;;23.93;51.48
40574;BME280;26283;49.020;8.644;2023-06-10T09:13:43;98989.59;;;23.93;51.48
40574;BME280;26283;49.020;8.644;2023-06-10T09:16:09;98989.91;;;23.92;51.49
40574;BME280;26283;49.020;8.644;2023-06-10T09:18:37;98990.22;;;23.90;51.53
40574;BME280;26283;49.020;8.644;2023-06-10T09:21:02;98981.78;;;23.87;51.56
40574;BME280;26283;49.020;8.644;2023-06-10T09:23:27;98987.59;;;23.85;51.64
40574;BME280;26283;49.020;8.644;2023-06-10T09:25:58;98981.56;;;23.83;51.66
40574;BME280;26283;49.020;8.644;2023-06-10T09:28:23;98984.31;;;23.83;51.71
40574;BME280;26283;49.020;8.644;2023-06-10T09:30:49;98979.13;;;23.82;51.66
40574;BME280;26283;49.020;8.644;2023-06-10T09:33:17;98977.19;;;23.82;51.65
40574;BME280;26283;49.020;8.644;2023-06-10T09:36:03;98975.25;;;23.83;51.59
40574;BME280;26283;49.020;8.644;2023-06-10T09:38:36;98973.00;;;23.85;51.50
40574;BME280;26283;49.020;8.644;2023-06-10T09:41:03;98973.50;;;23.87;51.44
40574;BME280;26283;49.020;8.644;2023-06-10T09:46:05;98972.09;;;23.89;51.29
40574;BME280;26283;49.020;8.644;2023-06-10T09:48:34;98973.72;;;23.90;51.25
40574;BME280;26283;49.020;8.644;2023-06-10T09:51:00;98975.03;;;23.93;51.26
40574;BME280;26283;49.020;8.644;2023-06-10T09:53:25;98970.03;;;23.95;51.16
40574;BME280;26283;49.020;8.644;2023-06-10T09:55:52;98969.72;;;23.97;51.06
40574;BME280;26283;49.020;8.644;2023-06-10T09:58:21;98973.47;;;24.01;51.00
40574;BME280;26283;49.020;8.644;2023-06-10T10:00:58;98972.03;;;24.03;50.97
40574;BME280;26283;49.020;8.644;2023-06-10T10:03:23;98976.06;;;24.06;50.86
40574;BME280;26283;49.020;8.644;2023-06-10T10:05:49;98975.44;;;24.09;50.78
40574;BME280;26283;49.020;8.644;2023-06-10T10:08:14;98970.44;;;24.11;50.71
40574;BME280;26283;49.020;8.644;2023-06-10T10:10:42;98970.94;;;24.13;50.68
40574;BME280;26283;49.020;8.644;2023-06-10T10:13:07;98971.44;;;24.15;50.60
40574;BME280;26283;49.020;8.644;2023-06-10T10:15:33;98971.94;;;24.17;50.55
40574;BME280;26283;49.020;8.644;2023-06-10T10:18:07;98967.75;;;24.19;50.52
40574;BME280;26283;49.020;8.644;2023-06-10T10:20:36;98959.19;;;24.21;50.42
40574;BME280;26283;49.020;8.644;2023-06-10T10:23:05;98963.25;;;24.23;50.40
40574;BME280;26283;49.020;8.644;2023-06-10T10:25:38;98964.56;;;24.26;50.36
40574;BME280;26283;49.020;8.644;2023-06-10T10:28:10;98957.59;;;24.29;50.28
40574;BME280;26283;49.020;8.644;2023-06-10T10:30:45;98964.13;;;24.33;50.16
40574;BME280;26283;49.020;8.644;2023-06-10T10:33:42;98965.94;;;24.37;50.02
40574;BME280;26283;49.020;8.644;2023-06-10T10:36:10;98967.25;;;24.40;49.88
40574;BME280;26283;49.020;8.644;2023-06-10T10:38:37;98951.22;;;24.42;49.84
40574;BME280;26283;49.020;8.644;2023-06-10T10:41:04;98959.97;;;24.44;49.71
40574;BME280;26283;49.020;8.644;2023-06-10T10:43:30;98960.62;;;24.49;49.59
40574;BME280;26283;49.020;8.644;2023-06-10T10:46:01;98950.09;;;24.51;49.50
40574;BME280;26283;49.020;8.644;2023-06-10T10:48:27;98951.09;;;24.55;49.43
40574;BME280;26283;49.020;8.644;2023-06-10T10:50:58;98959.84;;;24.57;49.30
40574;BME280;26283;49.020;8.644;2023-06-10T10:53:24;98953.72;;;24.60;49.18
40574;BME280;26283;49.020;8.644;2023-06-10T10:56:06;98945.12;;;24.62;49.18
40574;BME280;26283;49.020;8.644;2023-06-10T10:58:33;98944.19;;;24.67;49.04
40574;BME280;26283;49.020;8.644;2023-06-10T11:00:58;98956.84;;;24.68;49.03
40574;BME280;26283;49.020;8.644;2023-06-10T11:03:28;98950.97;;;24.69;48.93
40574;BME280;26283;49.020;8.644;2023-06-10T11:05:58;98949.53;;;24.72;48.89
40574;BME280;26283;49.020;8.644;2023-06-10T11:11:20;98942.25;;;24.76;48.75
40574;BME280;26283;49.020;8.644;2023-06-10T11:16:27;98938.03;;;24.78;48.64
40574;BME280;26283;49.020;8.644;2023-06-10T11:18:56;98936.91;;;24.79;48.58
40574;BME280;26283;49.020;8.644;2023-06-10T11:21:25;98936.59;;;24.81;48.56
40574;BME280;26283;49.020;8.644;2023-06-10T11:23:51;98932.41;;;24.83;48.51
40574;BME280;26283;49.020;8.644;2023-06-10T11:31:22;98914.91;;;24.88;48.36
40574;BME280;26283;49.020;8.644;2023-06-10T11:33:53;98929.16;;;24.90;48.31
40574;BME280;26283;49.020;8.644;2023-06-10T11:36:19;98931.59;;;24.91;48.28
40574;BME280;26283;49.020;8.644;2023-06-10T11:38:44;98924.13;;;24.92;48.24
40574;BME280;26283;49.020;8.644;2023-06-10T11:41:11;98927.37;;;24.94;48.18
40574;BME280;26283;49.020;8.644;2023-06-10T11:43:40;98916.34;;;24.94;48.17
40574;BME280;26283;49.020;8.644;2023-06-10T11:46:07;98917.69;;;24.97;48.10
40574;BME280;26283;49.020;8.644;2023-06-10T11:48:33;98913.00;;;24.97;48.07
40574;BME280;26283;49.020;8.644;2023-06-10T11:50:59;98913.00;;;24.97;48.08
40574;BME280;26283;49.020;8.644;2023-06-10T11:53:25;98910.72;;;24.99;48.05
40574;BME280;26283;49.020;8.644;2023-06-10T11:55:50;98915.09;;;25.00;48.02
40574;BME280;26283;49.020;8.644;2023-06-10T11:58:21;98907.31;;;25.02;47.97
40574;BME280;26283;49.020;8.644;2023-06-10T12:00:51;98907.00;;;25.04;47.94
40574;BME280;26283;49.020;8.644;2023-06-10T12:03:19;98912.19;;;25.05;47.92
40574;BME280;26283;49.020;8.644;2023-06-10T12:06:13;98909.13;;;25.07;47.89
40574;BME280;26283;49.020;8.644;2023-06-10T12:08:43;98906.03;;;25.08;47.85
40574;BME280;26283;49.020;8.644;2023-06-10T12:11:08;98906.84;;;25.09;47.87
40574;BME280;26283;49.020;8.644;2023-06-10T12:13:34;98912.06;;;25.10;47.86
40574;BME280;26283;49.020;8.644;2023-06-10T12:16:19;98913.31;;;25.13;47.87
40574;BME280;26283;49.020;8.644;2023-06-10T12:18:46;98905.06;;;25.13;47.82
40574;BME280;26283;49.020;8.644;2023-06-10T12:21:18;98909.44;;;25.14;47.83
40574;BME280;26283;49.020;8.644;2023-06-10T12:26:44;98906.03;;;25.17;47.83
40574;BME280;26283;49.020;8.644;2023-06-10T12:29:19;98899.38;;;25.18;47.81
40574;BME280;26283;49.020;8.644;2023-06-10T12:31:56;98902.16;;;25.18;47.83
40574;BME280;26283;49.020;8.644;2023-06-10T12:36:54;98892.41;;;25.20;47.79
40574;BME280;26283;49.020;8.644;2023-06-10T12:39:20;98901.50;;;25.21;47.80
40574;BME280;26283;49.020;8.644;2023-06-10T12:41:49;98908.63;;;25.22;47.79
40574;BME280;26283;49.020;8.644;2023-06-10T12:44:16;98904.75;;;25.23;47.75
40574;BME280;26283;49.020;8.644;2023-06-10T12:46:41;98897.28;;;25.23;47.77
40574;BME280;26283;49.020;8.644;2023-06-10T12:49:07;98895.34;;;25.24;47.76
40574;BME280;26283;49.020;8.644;2023-06-10T12:51:32;98895.03;;;25.25;47.74
40574;BME280;26283;49.020;8.644;2023-06-10T12:53:59;98891.13;;;25.26;47.73
40574;BME280;26283;49.020;8.644;2023-06-10T12:56:25;98887.22;;;25.27;47.73
40574;BME280;26283;49.020;8.644;2023-06-10T12:58:50;98882.22;;;25.30;47.72
40574;BME280;26283;49.020;8.644;2023-06-10T13:01:16;98892.44;;;25.29;47.73
40574;BME280;26283;49.020;8.644;2023-06-10T13:03:41;98894.06;;;25.30;47.75
40574;BME280;26283;49.020;8.644;2023-06-10T13:06:06;98890.97;;;25.32;47.72
40574;BME280;26283;49.020;8.644;2023-06-10T13:08:32;98889.03;;;25.32;47.72
40574;BME280;26283;49.020;8.644;2023-06-10T13:10:58;98883.16;;;25.34;47.72
40574;BME280;26283;49.020;8.644;2023-06-10T13:13:23;98889.47;;;25.34;47.72
40574;BME280;26283;49.020;8.644;2023-06-10T13:15:49;98884.78;;;25.35;47.71
40574;BME280;26283;49.020;8.644;2023-06-10T13:18:15;98880.87;;;25.36;47.68
40574;BME280;26283;49.020;8.644;2023-06-10T13:20:43;98889.66;;;25.38;47.67